CYPRPAKT

Guest
Details From CYPR - Prince Rupert
To PAKT - KETCHIKAN INTL
Flight Number -
Tags generated
Created
Modified
Stats Distance 78 nm / 144 km
Max Altitude 6,600 ft / 2,012 m
Waypoints 3
Social Downloads 1
Likes 0
Share VATSIM

Download

Looking for another format? Having issues loading an existing format? Contact us
Advertisement - Login to hide

Notes

Basic altitude profile: - Ascent Rate: 500ft/min - Ascent Speed: 150kts - Cruise Altitude: 5000ft - Cruise Speed: 200kts - Descent Rate: 1000ft/min - Descent Speed: 120kts Options: - Use NATs: yes - Use PACOTS: yes - Use low airways: yes - Use high airways: no

Route

CYPR AGPAL PAKT

ID Type Via Altitude Latitude Longitude Leg Dist Tot Dist Heading (true) Name
O CYPR APT - 0 ft / 0 m 54.28611˚ -130.44472˚ - 0 nm - Prince Rupert
AGPAL FIX - 6,600 ft / 2,012 m 54.52917˚ -130.77944˚ 18 nm 18 nm 321° / 321° -
O PAKT APT - 0 ft / 0 m 55.35554˚ -131.71374˚ 59 nm 77 nm 327° / 327° KETCHIKAN INTL

Altitude Profile

Advertisement - Login to hide

CYPR

Details ICAO CYPR (YPR)
Name Prince Rupert
Region Canada
Timezone America/Vancouver (UTC-7.0)
Stats Elevation 116 ft / 35 m (AMSL)
Location 54.286114° -130.444717°
Runways 1
Magnetic Variation 18.159° E

METAR

CYPR 261900Z AUTO 14016G24KT 9SM OVC038 08/06 A2985 RMK SLP112

Decode

TAF

TAF CYPR 261838Z 2619/2707 14018G28KT P6SM -RA FEW020 OVC040 TEMPO 2619/2701 3SM -RA BR OVC020 FM270100 14018G28KT P6SM -RA SCT007 OVC015 TEMPO 2701/2707 4SM -RA BR OVC007 RMK FCST BASED ON AUTO OBS. NXT FCST BY 270100Z

Decode

Departure Runways

ID Width Length Bearing (true) Bearing (mag) Surface Threshold Offset Overrun Length
13 200 ft / 61 m 6,043 ft / 1,842 m 150.73° 132.57° Asphalt 0 ft / 0 m 0 ft / 0 m
31 200 ft / 61 m 6,043 ft / 1,842 m 330.74° 312.58° Asphalt 0 ft / 0 m 0 ft / 0 m

PAKT

Details ICAO PAKT (KTN)
Name KETCHIKAN INTL
Region USA (Alaska)
Timezone Unknown (UTC+0.0)
Stats Elevation 88 ft / 27 m (AMSL)
Location 55.355545° -131.713737°
Runways 1
Magnetic Variation 18.427° E

METAR

PAKT 261853Z 13024G31KT 4SM RA OVC012 08/05 A2981

Decode

TAF

PAKT 261730Z 2618/2718 13020G30KT P6SM -RA SCT010 OVC018 WS020/14045KT FM270900 14010KT P6SM -SHRA OVC018 AMD LTD TO CLD VIS AND WIND 2706/2715

Decode

Destination Runways

ID Width Length Bearing (true) Bearing (mag) Surface Threshold Offset Overrun Length
11 150 ft / 46 m 7,485 ft / 2,281 m 135.66° 117.23° Asphalt 0 ft / 0 m 200 ft / 61 m
29 150 ft / 46 m 7,485 ft / 2,281 m 315.68° 297.25° Asphalt 0 ft / 0 m 100 ft / 30 m

Approach Navaids

Runway Type Ident Frequency Range Bearing (true) Bearing (mag) Slope Elevation
11 Localiser IECH 109.30 MHz 18 nm / 33 km 135.69° 117.26° - 66 ft / 20 m (AMSL)
11 Glidescope IECH 109.30 MHz 10 nm / 19 km 135.67° 117.25° 3.61° 76 ft / 23 m (AMSL)
11 DME IECH 109.30 MHz 18 nm / 33 km - - - 98 ft / 30 m (AMSL)

Popular Alternatives